Time;durP1;ratioP1;P1;durP2;ratioP2;P2;SDS_P1;SDS_P2;PMS_P1;PMS_P2;Temp;Humidity;BMP_temperature;BMP_pressure;BME280_temperature;BME280_humidity;BME280_pressure;Samples;Min_cycle;Max_cycle;Signal;HPM_P1;HPM_P2
2023/10/24 00:00:09;;;;;;;5.72;2.50;;;;;;;16.44;59.25;99752.63;669987;29;1402;-92
2023/10/24 00:00:45;;;;;;;4.90;2.10;;;;;;;16.40;59.22;99754.44;664395;29;1266;-90
2023/10/24 00:01:22;;;;;;;3.90;2.28;;;;;;;16.44;59.24;99758.78;671049;29;1272;-91
2023/10/24 00:02:02;;;;;;;4.72;2.60;;;;;;;16.47;59.36;99757.00;666896;29;1217;-91
2023/10/24 00:02:35;;;;;;;3.80;2.17;;;;;;;16.40;59.21;99743.91;668961;29;1365;-91
2023/10/24 00:03:37;;;;;;;2.47;1.90;;;;;;;16.47;59.28;99751.72;667934;29;1236;-90
2023/10/24 00:04:14;;;;;;;3.72;2.45;;;;;;;16.44;59.35;99750.00;669516;29;1586;-90
2023/10/24 00:04:42;;;;;;;3.70;2.30;;;;;;;16.43;59.48;99746.47;672281;29;1664;-90
2023/10/24 00:05:34;;;;;;;;;;;;;;;;;;;;;
2023/10/24 00:06:35;;;;;;;4.82;2.40;;;;;;;16.46;59.59;99760.53;675348;29;1103;-92
2023/10/24 00:07:13;;;;;;;4.20;2.08;;;;;;;16.43;59.37;99754.38;672362;29;1190;-91
2023/10/24 00:07:42;;;;;;;5.35;2.20;;;;;;;16.42;59.35;99751.78;671959;29;1362;-91
2023/10/24 00:08:29;;;;;;;6.45;2.47;;;;;;;16.41;59.31;99745.63;668315;29;1384;-91
2023/10/24 00:08:53;;;;;;;4.40;2.20;;;;;;;16.37;59.41;99746.59;671653;29;1406;-91
2023/10/24 00:09:16;;;;;;;3.40;2.00;;;;;;;16.44;59.33;99755.28;677005;29;1430;-91
2023/10/24 00:09:48;;;;;;;4.93;2.20;;;;;;;16.47;59.44;99764.91;674716;29;1353;-91
2023/10/24 00:10:21;;;;;;;4.80;2.25;;;;;;;16.39;59.54;99752.69;679509;29;1302;-91
2023/10/24 00:11:33;;;;;;;3.08;2.08;;;;;;;16.54;59.38;99771.81;676657;29;1267;-91
2023/10/24 00:12:45;;;;;;;5.75;2.70;;;;;;;16.57;59.42;99771.78;666589;29;1325;-91
2023/10/24 00:13:55;;;;;;;3.78;2.10;;;;;;;16.44;59.39;99756.16;671530;29;1362;-91
2023/10/24 00:15:13;;;;;;;;;;;;;;;;;;;;;
2023/10/24 00:16:30;;;;;;;3.90;2.47;;;;;;;16.57;59.21;99775.28;677777;29;1201;-91
2023/10/24 00:16:54;;;;;;;6.97;2.40;;;;;;;16.52;59.20;99766.56;677532;29;1461;-91
2023/10/24 00:17:28;;;;;;;6.35;2.50;;;;;;;16.49;59.44;99768.38;677329;29;1339;-91
2023/10/24 00:18:24;;;;;;;3.75;2.40;;;;;;;16.42;59.36;99755.28;674100;29;1547;-91
2023/10/24 00:20:09;;;;;;;4.10;2.30;;;;;;;16.51;59.63;99767.47;675498;29;1230;-91
2023/10/24 00:20:53;;;;;;;5.93;2.70;;;;;;;16.48;59.26;99759.63;672960;29;1274;-92
2023/10/24 00:21:55;;;;;;;6.82;2.40;;;;;;;16.52;59.25;99763.94;674861;29;711;-91
2023/10/24 00:22:41;;;;;;;3.33;2.00;;;;;;;16.51;59.19;99753.41;671337;29;1333;-91
2023/10/24 00:23:10;;;;;;;3.85;2.28;;;;;;;16.58;59.30;99765.63;668194;29;1280;-91
2023/10/24 00:23:49;;;;;;;3.08;1.98;;;;;;;16.62;59.33;99776.97;668778;29;1551;-90
2023/10/24 00:24:19;;;;;;;4.10;1.80;;;;;;;16.53;59.33;99763.03;674779;29;1382;-91
2023/10/24 00:24:59;;;;;;;4.32;2.10;;;;;;;16.65;59.33;99785.72;669282;29;1301;-91
2023/10/24 00:25:33;;;;;;;3.40;2.30;;;;;;;16.55;59.28;99769.16;674093;29;1112;-91
2023/10/24 00:26:20;;;;;;;3.50;2.30;;;;;;;16.55;59.27;99766.53;676230;29;1301;-91
2023/10/24 00:26:54;;;;;;;2.40;1.70;;;;;;;16.60;59.35;99776.13;674573;29;1471;-91
2023/10/24 00:27:24;;;;;;;3.38;1.60;;;;;;;16.60;59.08;99765.59;672631;29;1196;-91
2023/10/24 00:27:53;;;;;;;4.15;1.90;;;;;;;16.65;59.23;99779.59;667099;29;1339;-91
2023/10/24 00:28:20;;;;;;;3.22;1.95;;;;;;;16.60;59.29;99765.59;674734;29;1470;-92
2023/10/24 00:28:53;;;;;;;3.47;2.50;;;;;;;16.60;59.33;99765.59;679324;29;1215;-92
2023/10/24 00:29:25;;;;;;;3.20;2.47;;;;;;;16.59;59.24;99759.44;670767;29;1157;-91
2023/10/24 00:30:10;;;;;;;6.63;2.35;;;;;;;16.65;59.25;99769.91;675009;29;1355;-91
2023/10/24 00:30:56;;;;;;;5.45;2.10;;;;;;;16.63;59.00;99758.53;672115;29;1310;-91
2023/10/24 00:31:51;;;;;;;4.93;2.25;;;;;;;16.63;59.25;99763.81;678499;29;1156;-91
2023/10/24 00:32:28;;;;;;;3.95;2.05;;;;;;;16.53;59.36;99749.03;671967;29;1887;-91
2023/10/24 00:32:59;;;;;;;4.68;2.10;;;;;;;16.56;59.46;99748.97;672277;29;1272;-91
2023/10/24 00:33:51;;;;;;;3.10;2.03;;;;;;;16.65;59.24;99759.38;672168;29;1039;-91
2023/10/24 00:34:28;;;;;;;3.30;2.30;;;;;;;16.65;59.10;99764.66;674662;29;1224;-91
2023/10/24 00:34:56;;;;;;;4.70;2.10;;;;;;;16.68;59.18;99771.63;670145;29;1244;-91
2023/10/24 00:35:55;;;;;;;4.35;1.70;;;;;;;16.56;59.40;99757.75;671508;29;1319;-91
2023/10/24 00:38:08;;;;;;;4.32;2.20;;;;;;;16.52;59.23;99747.25;666563;29;1721;-91
2023/10/24 00:39:08;;;;;;;4.97;2.20;;;;;;;16.50;59.15;99755.19;673951;29;1829;-91
2023/10/24 00:39:46;;;;;;;3.90;1.95;;;;;;;16.62;59.40;99775.22;666976;29;1669;-92
2023/10/24 00:40:20;;;;;;;4.60;2.00;;;;;;;16.61;59.37;99760.31;669538;29;1449;-91
2023/10/24 00:40:59;;;;;;;;;;;;;;;;;;;;;
2023/10/24 00:42:22;;;;;;;4.00;2.28;;;;;;;16.56;59.15;99754.25;677236;29;1412;-91
2023/10/24 00:43:02;;;;;;;5.28;2.22;;;;;;;16.62;59.30;99759.44;677090;29;1155;-92
2023/10/24 00:46:00;;;;;;;3.00;1.92;;;;;;;16.57;58.99;99745.44;678521;29;1488;-90
2023/10/24 00:47:28;;;;;;;2.95;1.90;;;;;;;16.67;59.03;99762.84;672302;29;1289;-91
2023/10/24 00:47:53;;;;;;;4.03;2.33;;;;;;;16.59;58.93;99748.91;674200;29;1288;-91
2023/10/24 00:48:30;;;;;;;3.15;2.10;;;;;;;16.66;59.04;99755.84;674272;29;1129;-91
2023/10/24 00:51:47;;;;;;;4.85;2.40;;;;;;;16.71;59.04;99761.94;682313;29;1560;-91
2023/10/24 00:52:14;;;;;;;3.78;2.45;;;;;;;16.72;58.95;99754.91;675824;29;1356;-93
2023/10/24 00:52:41;;;;;;;4.93;2.45;;;;;;;16.62;58.99;99732.22;677595;29;1891;-92
2023/10/24 00:53:32;;;;;;;4.75;2.17;;;;;;;16.67;58.78;99752.31;675427;29;1184;-91
2023/10/24 00:57:13;;;;;;;4.63;2.30;;;;;;;16.53;59.03;99736.72;667103;29;1062;-91
2023/10/24 00:57:40;;;;;;;5.57;2.40;;;;;;;16.50;59.13;99725.34;661883;29;1268;-91
2023/10/24 00:58:30;;;;;;;5.28;2.50;;;;;;;16.65;59.02;99746.22;662190;29;1402;-91
2023/10/24 00:59:26;;;;;;;7.53;2.67;;;;;;;16.65;58.87;99729.56;669192;29;1479;-90
2023/10/24 01:00:06;;;;;;;5.10;2.40;;;;;;;16.72;58.73;99732.06;664315;29;1186;-91
2023/10/24 01:00:37;;;;;;;4.18;2.10;;;;;;;16.65;58.66;99726.91;664347;29;1239;-92
2023/10/24 01:01:04;;;;;;;3.38;2.10;;;;;;;16.63;58.74;99728.69;664011;29;1260;-91
2023/10/24 01:02:03;;;;;;;4.18;2.13;;;;;;;16.64;58.75;99725.16;664287;29;1239;-91
2023/10/24 01:03:45;;;;;;;5.10;2.50;;;;;;;16.71;58.58;99737.34;666389;29;1411;-91
2023/10/24 01:04:09;;;;;;;4.30;2.22;;;;;;;16.68;58.63;99732.13;667985;29;1437;-91
2023/10/24 01:04:59;;;;;;;3.33;2.05;;;;;;;16.69;58.54;99744.41;666884;29;1425;-92
2023/10/24 01:05:42;;;;;;;3.00;1.80;;;;;;;16.65;58.58;99730.41;674238;29;1457;-92
2023/10/24 01:06:09;;;;;;;4.95;1.90;;;;;;;16.62;58.43;99721.69;674075;29;1395;-91
2023/10/24 01:06:33;;;;;;;5.53;2.00;;;;;;;16.68;58.34;99735.66;668721;29;1438;-91
2023/10/24 01:07:27;;;;;;;3.92;2.20;;;;;;;16.68;58.48;99732.13;678549;29;1321;-91
2023/10/24 01:07:51;;;;;;;4.38;2.40;;;;;;;16.65;58.71;99734.81;677298;29;1409;-91
2023/10/24 01:09:29;;;;;;;;;;;;;;;;;;;;;
2023/10/24 01:11:27;;;;;;;4.65;2.30;;;;;;;16.74;58.47;99739.06;672176;29;1067;-90
2023/10/24 01:12:28;;;;;;;5.93;2.53;;;;;;;16.76;58.47;99739.91;673542;29;1019;-91
2023/10/24 01:13:43;;;;;;;4.03;2.28;;;;;;;16.71;58.50;99727.69;671519;29;1133;-91
2023/10/24 01:22:45;;;;;;;10.23;2.00;;;;;;;16.82;58.44;99731.94;671517;29;1265;-90
2023/10/24 01:23:35;;;;;;;3.38;2.10;;;;;;;16.76;58.46;99719.72;672030;29;1406;-91
2023/10/24 01:27:03;;;;;;;3.40;2.40;;;;;;;16.91;58.46;99730.94;673565;29;1535;-91
2023/10/24 01:27:55;;;;;;;;;;;;;;;;;;;;;
2023/10/24 01:33:51;;;;;;;4.60;2.30;;;;;;;16.88;58.46;99729.22;678517;29;1196;-91
2023/10/24 01:34:15;;;;;;;4.13;2.10;;;;;;;16.80;58.37;99715.28;678429;29;1217;-91
2023/10/24 01:34:56;;;;;;;3.10;1.80;;;;;;;16.83;58.39;99710.84;671802;29;1541;-91
2023/10/24 01:35:28;;;;;;;3.63;2.10;;;;;;;16.85;58.56;99724.84;673447;29;1484;-91
2023/10/24 01:39:48;;;;;;;3.28;2.10;;;;;;;16.94;58.25;99729.13;679969;29;1325;-92
2023/10/24 01:40:34;;;;;;;3.30;2.28;;;;;;;16.91;58.36;99720.38;674564;29;1279;-91
2023/10/24 01:41:50;;;;;;;3.75;2.40;;;;;;;16.92;58.39;99725.66;674906;29;1413;-91
2023/10/24 01:43:43;;;;;;;3.60;2.30;;;;;;;16.93;58.42;99724.75;674302;29;1386;-90
2023/10/24 01:44:51;;;;;;;5.47;2.10;;;;;;;16.96;58.39;99711.50;679661;29;1246;-90
2023/10/24 01:45:15;;;;;;;5.30;2.30;;;;;;;17.00;58.24;99717.59;677712;29;1391;-91
2023/10/24 01:45:48;;;;;;;3.97;2.05;;;;;;;17.04;58.46;99721.06;674432;29;1336;-90
2023/10/24 01:46:44;;;;;;;3.85;2.20;;;;;;;17.04;58.36;99721.06;680823;29;1474;-90
2023/10/24 01:47:16;;;;;;;4.68;2.42;;;;;;;17.12;58.24;99735.88;672553;29;1259;-90
2023/10/24 01:48:20;;;;;;;3.40;2.10;;;;;;;17.11;58.08;99720.94;675415;29;1346;-91
2023/10/24 01:48:55;;;;;;;3.42;2.10;;;;;;;17.07;58.09;99707.81;671787;29;1305;-91
2023/10/24 01:49:42;;;;;;;2.65;1.90;;;;;;;17.22;57.94;99727.84;676743;29;1310;-92
2023/10/24 01:50:21;;;;;;;3.65;1.95;;;;;;;17.19;57.88;99705.00;675103;29;1210;-91
2023/10/24 01:51:13;;;;;;;3.53;2.15;;;;;;;17.19;57.94;99712.03;674601;29;1298;-89
2023/10/24 01:52:18;;;;;;;4.07;2.10;;;;;;;17.19;57.57;99709.41;674036;29;1197;-90
2023/10/24 01:52:39;;;;;;;5.90;2.30;;;;;;;17.23;57.82;99708.50;673893;29;1976;-91
2023/10/24 01:53:16;;;;;;;5.70;2.30;;;;;;;17.34;57.61;99718.88;671738;29;1196;-91
2023/10/24 01:53:39;;;;;;;3.55;2.20;;;;;;;17.32;57.56;99713.59;674326;29;1245;-89
2023/10/24 01:54:00;;;;;;;3.75;2.40;;;;;;;17.36;57.58;99719.69;675610;29;1359;-91
2023/10/24 01:54:21;;;;;;;4.47;2.28;;;;;;;17.35;57.62;99723.25;670001;29;1314;-91
2023/10/24 01:54:45;;;;;;;4.25;1.90;;;;;;;17.34;57.71;99716.22;679546;29;1441;-91
2023/10/24 01:56:09;;;;;;;;;;;;;;;;;;;;;
2023/10/24 01:56:48;;;;;;;5.22;2.10;;;;;;;17.35;57.10;99692.47;671811;29;1197;-91
2023/10/24 01:58:10;;;;;;;3.75;2.40;;;;;;;17.36;57.04;99699.50;676596;29;1305;-90
2023/10/24 01:58:59;;;;;;;;;;;;;;;;;;;;;
2023/10/24 01:59:51;;;;;;;2.80;1.77;;;;;;;17.39;56.91;99691.50;671660;29;1423;-89
2023/10/24 02:00:15;;;;;;;3.13;1.92;;;;;;;17.37;56.82;99692.44;664515;29;1400;-89
2023/10/24 02:00:36;;;;;;;3.13;1.90;;;;;;;17.47;56.84;99709.84;675039;29;1256;-91
2023/10/24 02:01:06;;;;;;;4.07;2.20;;;;;;;17.48;56.89;99713.34;672218;29;1347;-89
2023/10/24 02:01:29;;;;;;;3.97;2.30;;;;;;;17.53;56.82;99720.28;671698;29;1232;-91
2023/10/24 02:01:51;;;;;;;3.70;2.22;;;;;;;17.48;56.93;99706.31;677793;29;1288;-91
2023/10/24 02:02:14;;;;;;;4.03;2.17;;;;;;;17.50;56.81;99708.91;673420;29;1301;-91
2023/10/24 02:02:37;;;;;;;3.40;2.00;;;;;;;17.49;56.80;99704.53;675375;29;1251;-90
2023/10/24 02:03:03;;;;;;;3.22;2.00;;;;;;;17.47;57.04;99701.06;674633;29;1255;-91
2023/10/24 02:05:31;;;;;;;2.75;1.77;;;;;;;17.52;56.62;99715.91;678467;29;1210;-91
2023/10/24 02:05:55;;;;;;;2.85;1.80;;;;;;;17.53;56.61;99711.50;683783;28;1288;-91
2023/10/24 02:06:22;;;;;;;3.20;1.75;;;;;;;17.56;56.56;99711.44;675481;29;1360;-91
2023/10/24 02:07:00;;;;;;;3.78;2.00;;;;;;;17.54;56.54;99705.34;670251;29;1406;-92
2023/10/24 02:07:23;;;;;;;3.50;2.00;;;;;;;17.53;56.63;99712.34;680344;29;1314;-91
2023/10/24 02:08:15;;;;;;;;;;;;;;;;;;;;;
2023/10/24 02:09:27;;;;;;;3.63;1.90;;;;;;;17.55;56.56;99701.78;674689;29;1055;-91
2023/10/24 02:10:08;;;;;;;3.42;2.00;;;;;;;17.56;56.38;99706.16;674760;29;1269;-90
2023/10/24 02:11:05;;;;;;;2.80;1.80;;;;;;;17.57;56.30;99705.25;676301;29;1570;-91
2023/10/24 02:12:31;;;;;;;3.15;1.80;;;;;;;17.62;56.24;99716.59;681481;29;1175;-90
2023/10/24 02:12:57;;;;;;;3.65;1.88;;;;;;;17.50;56.28;99701.00;675266;29;1291;-91
2023/10/24 02:14:07;;;;;;;3.83;1.95;;;;;;;17.46;56.46;99694.91;675067;29;1368;-90
2023/10/24 02:16:19;;;;;;;3.88;2.25;;;;;;;17.59;56.59;99715.78;669890;29;1403;-90
2023/10/24 02:17:04;;;;;;;4.32;1.88;;;;;;;17.66;56.44;99722.69;678150;29;1254;-90
2023/10/24 02:17:31;;;;;;;4.40;1.80;;;;;;;17.53;56.62;99706.22;677520;29;1326;-91
2023/10/24 02:19:06;;;;;;;4.50;2.03;;;;;;;17.55;56.26;99707.06;671855;29;1334;-91
2023/10/24 02:20:30;;;;;;;3.15;1.90;;;;;;;17.47;56.49;99701.06;676027;29;1381;-90
2023/10/24 02:21:10;;;;;;;2.20;1.50;;;;;;;17.50;56.50;99696.59;669402;29;1244;-90
2023/10/24 02:22:11;;;;;;;3.58;1.80;;;;;;;17.56;56.45;99707.94;673639;29;1117;-90
2023/10/24 02:23:15;;;;;;;2.60;1.80;;;;;;;17.52;56.29;99694.81;674050;29;1222;-89
2023/10/24 02:24:35;;;;;;;3.50;2.00;;;;;;;17.50;56.48;99690.44;677451;29;987;-90
2023/10/24 02:25:54;;;;;;;3.92;2.10;;;;;;;17.56;56.36;99695.63;676999;29;1082;-89
2023/10/24 02:26:26;;;;;;;3.63;2.08;;;;;;;17.63;56.26;99704.28;675745;29;1464;-90
2023/10/24 02:27:28;;;;;;;;;;;;;;;;;;;;;
2023/10/24 02:28:11;;;;;;;2.47;1.65;;;;;;;17.51;56.30;99695.69;669816;29;1258;-90
2023/10/24 02:28:42;;;;;;;2.70;1.70;;;;;;;17.49;56.32;99704.53;676858;29;1253;-90
2023/10/24 02:29:05;;;;;;;2.65;1.70;;;;;;;17.50;56.61;99709.78;679688;29;1392;-92
2023/10/24 02:29:26;;;;;;;3.65;2.00;;;;;;;17.58;56.68;99716.69;677669;29;1340;-91
2023/10/24 02:29:47;;;;;;;4.27;2.20;;;;;;;17.51;56.46;99700.09;672008;29;1267;-91
2023/10/24 02:30:27;;;;;;;4.55;2.20;;;;;;;17.59;56.40;99700.84;671012;29;1149;-90
2023/10/24 02:30:56;;;;;;;5.20;2.10;;;;;;;17.61;56.10;99693.78;674991;29;1310;-90
2023/10/24 02:31:22;;;;;;;4.75;1.85;;;;;;;17.68;56.13;99708.59;674470;29;1459;-90
2023/10/24 02:31:48;;;;;;;2.95;1.75;;;;;;;17.62;56.01;99700.78;674331;29;1298;-90
2023/10/24 02:33:05;;;;;;;2.50;1.70;;;;;;;17.66;56.25;99706.88;665970;29;1222;-91
2023/10/24 02:34:21;;;;;;;4.00;1.70;;;;;;;17.61;55.81;99687.63;675601;29;1371;-91
2023/10/24 02:35:05;;;;;;;;;;;;;;;;;;;;;
2023/10/24 02:35:56;;;;;;;;;;;;;;;;;;;;;
2023/10/24 02:36:18;;;;;;;3.85;2.00;;;;;;;17.66;55.80;99698.97;671191;29;1415;-91
2023/10/24 02:36:41;;;;;;;3.78;1.90;;;;;;;17.63;55.97;99699.00;673926;29;1387;-91
2023/10/24 02:37:05;;;;;;;3.97;1.93;;;;;;;17.67;55.85;99698.94;675009;29;1354;-91
2023/10/24 02:37:26;;;;;;;3.80;1.90;;;;;;;17.72;55.93;99704.13;674807;29;1224;-89
2023/10/24 02:37:49;;;;;;;3.13;1.80;;;;;;;17.74;55.77;99710.25;679960;29;1456;-90
2023/10/24 02:38:20;;;;;;;3.28;1.98;;;;;;;17.80;55.81;99719.81;678494;29;1230;-90
2023/10/24 02:39:12;;;;;;;3.05;1.90;;;;;;;17.73;55.77;99707.63;669624;29;1421;-91
2023/10/24 02:39:38;;;;;;;6.38;1.83;;;;;;;17.74;55.43;99699.69;675110;29;1248;-89
2023/10/24 02:39:59;;;;;;;3.50;1.88;;;;;;;17.71;55.62;99698.88;677020;29;1469;-92
2023/10/24 02:40:20;;;;;;;3.23;1.93;;;;;;;17.67;55.53;99700.69;666663;29;1294;-91
2023/10/24 02:40:51;;;;;;;2.30;1.70;;;;;;;17.67;55.52;99700.69;669538;29;1483;-91
2023/10/24 02:41:12;;;;;;;2.80;1.73;;;;;;;17.75;55.29;99695.25;674735;29;1258;-91
2023/10/24 02:41:33;;;;;;;3.50;2.00;;;;;;;17.70;55.31;99698.00;675005;29;1456;-91
2023/10/24 02:41:54;;;;;;;2.85;1.90;;;;;;;17.74;55.41;99701.44;672019;29;1214;-91
2023/10/24 02:42:15;;;;;;;2.80;2.00;;;;;;;17.73;55.48;99702.34;674592;29;1241;-91
2023/10/24 02:42:41;;;;;;;5.38;2.08;;;;;;;17.74;55.37;99712.88;675053;29;1289;-91
2023/10/24 02:43:23;;;;;;;5.95;1.90;;;;;;;17.72;55.78;99708.53;671983;29;1327;-91
2023/10/24 02:43:47;;;;;;;3.10;1.70;;;;;;;17.70;55.62;99695.34;674287;29;1207;-91
2023/10/24 02:44:08;;;;;;;2.33;1.50;;;;;;;17.71;55.60;99705.03;677331;29;1238;-91
2023/10/24 02:44:29;;;;;;;3.10;1.60;;;;;;;17.68;55.51;99702.44;666928;29;1366;-90
2023/10/24 02:44:50;;;;;;;3.03;1.77;;;;;;;17.71;55.50;99705.03;672277;29;1228;-90
2023/10/24 02:45:12;;;;;;;3.72;2.10;;;;;;;17.76;55.34;99708.44;672849;29;1272;-90
2023/10/24 02:45:38;;;;;;;3.90;2.10;;;;;;;17.74;55.52;99704.06;672278;29;1364;-91
2023/10/24 02:46:03;;;;;;;3.33;1.95;;;;;;;17.71;55.67;99704.16;671926;29;1275;-90
2023/10/24 02:46:30;;;;;;;3.25;1.98;;;;;;;17.74;55.50;99707.59;672651;29;1417;-90
2023/10/24 02:46:53;;;;;;;2.80;1.90;;;;;;;17.71;55.53;99699.75;672323;29;1294;-91
2023/10/24 02:47:14;;;;;;;2.78;1.90;;;;;;;17.72;55.68;99706.75;670605;29;1270;-91
2023/10/24 02:47:34;;;;;;;2.33;1.52;;;;;;;17.76;55.40;99703.16;674831;29;1276;-91
2023/10/24 02:48:00;;;;;;;1.90;1.30;;;;;;;17.74;55.42;99689.13;672905;29;1431;-88
2023/10/24 02:48:21;;;;;;;2.20;1.40;;;;;;;17.83;55.60;99708.31;669893;29;1326;-91
2023/10/24 02:48:52;;;;;;;2.50;1.80;;;;;;;17.81;55.39;99709.22;672260;29;1504;-89
2023/10/24 02:49:41;;;;;;;2.40;1.80;;;;;;;17.75;55.60;99696.16;671004;29;1311;-89
2023/10/24 02:50:12;;;;;;;3.10;1.70;;;;;;;17.70;55.38;99694.50;674901;29;1211;-89
2023/10/24 02:51:09;;;;;;;6.32;1.80;;;;;;;17.78;55.20;99696.06;675052;29;1274;-90
2023/10/24 02:51:52;;;;;;;4.30;1.92;;;;;;;17.73;55.31;99697.94;674766;29;1386;-89
2023/10/24 02:52:31;;;;;;;4.20;1.85;;;;;;;17.77;55.27;99694.34;672830;29;1177;-90
2023/10/24 02:52:52;;;;;;;2.63;1.70;;;;;;;17.76;55.18;99697.03;672262;29;1433;-89
2023/10/24 02:53:13;;;;;;;2.72;1.73;;;;;;;17.71;55.24;99681.28;669491;29;1360;-90
2023/10/24 02:53:45;;;;;;;2.35;1.70;;;;;;;17.75;55.17;99688.22;669533;29;1313;-89
2023/10/24 02:54:06;;;;;;;2.17;1.73;;;;;;;17.75;55.12;99711.97;680062;29;1331;-89
2023/10/24 02:54:29;;;;;;;2.90;1.90;;;;;;;17.85;55.18;99722.34;677383;29;1205;-87
2023/10/24 02:54:50;;;;;;;2.75;1.65;;;;;;;17.73;55.37;99712.91;673515;29;1361;-89
2023/10/24 02:55:11;;;;;;;2.30;1.70;;;;;;;17.72;55.37;99717.31;672878;29;1374;-89
2023/10/24 02:55:37;;;;;;;3.60;1.80;;;;;;;17.67;55.43;99712.13;672444;29;1227;-88
2023/10/24 02:56:07;;;;;;;5.65;2.00;;;;;;;17.74;55.42;99719.91;672420;29;1226;-90
2023/10/24 02:56:30;;;;;;;4.20;1.90;;;;;;;17.73;55.20;99708.50;674975;29;1207;-91
2023/10/24 02:57:01;;;;;;;3.30;1.50;;;;;;;17.73;55.10;99712.91;675034;29;1301;-90
2023/10/24 02:57:24;;;;;;;5.78;1.60;;;;;;;17.76;55.18;99718.13;675078;29;1396;-90
2023/10/24 02:57:46;;;;;;;5.07;1.65;;;;;;;17.77;55.15;99726.00;671133;29;1220;-90
2023/10/24 02:58:06;;;;;;;4.20;1.80;;;;;;;17.83;55.13;99734.72;676669;29;1368;-90
2023/10/24 02:58:27;;;;;;;2.88;1.80;;;;;;;17.74;55.16;99715.50;680381;29;1281;-90
2023/10/24 02:58:49;;;;;;;2.80;1.80;;;;;;;17.79;55.08;99718.94;672230;29;1520;-89
2023/10/24 02:59:15;;;;;;;2.70;1.80;;;;;;;17.73;55.20;99708.50;672368;29;1305;-90
2023/10/24 02:59:38;;;;;;;2.50;1.90;;;;;;;17.74;55.08;99715.50;677812;29;1425;-90
2023/10/24 03:00:14;;;;;;;2.67;1.90;;;;;;;17.72;55.16;99706.75;674855;29;1195;-89
2023/10/24 03:00:46;;;;;;;3.08;1.90;;;;;;;17.78;54.82;99724.25;674946;29;1300;-87
2023/10/24 03:01:06;;;;;;;4.65;1.80;;;;;;;17.86;55.07;99734.63;671755;29;1323;-89
2023/10/24 03:01:30;;;;;;;4.43;1.80;;;;;;;17.77;55.14;99733.06;677442;29;1161;-89
2023/10/24 03:02:20;;;;;;;4.47;1.67;;;;;;;17.85;54.97;99740.81;671853;29;1248;-89
2023/10/24 03:02:41;;;;;;;5.30;2.00;;;;;;;17.78;55.11;99725.09;667146;29;1433;-89
2023/10/24 03:03:07;;;;;;;4.43;1.73;;;;;;;17.83;55.08;99734.72;668235;29;1530;-89
2023/10/24 03:03:32;;;;;;;2.50;1.80;;;;;;;17.76;54.89;99734.81;679974;29;1314;-89
2023/10/24 03:04:00;;;;;;;3.75;2.00;;;;;;;17.80;55.06;99733.00;675028;29;1276;-89
2023/10/24 03:04:23;;;;;;;4.68;2.05;;;;;;;17.72;54.92;99719.06;672177;29;1369;-89
2023/10/24 03:04:55;;;;;;;3.55;1.80;;;;;;;17.77;54.86;99728.63;676825;29;1338;-89
2023/10/24 03:05:18;;;;;;;2.92;1.80;;;;;;;17.78;55.15;99738.28;670242;29;1271;-90
2023/10/24 03:05:42;;;;;;;3.50;1.60;;;;;;;17.69;55.29;99717.34;672645;29;1369;-90
2023/10/24 03:06:13;;;;;;;3.53;1.83;;;;;;;17.76;54.92;99731.31;672076;29;1263;-89
2023/10/24 03:06:34;;;;;;;2.80;1.70;;;;;;;17.70;55.07;99724.38;672124;29;1306;-89
2023/10/24 03:07:08;;;;;;;;;;;;;;;;;;;;;
2023/10/24 03:07:32;;;;;;;4.80;2.00;;;;;;;17.73;55.21;99723.44;674045;29;1371;-89
2023/10/24 03:07:56;;;;;;;4.13;1.87;;;;;;;17.72;55.15;99717.31;679522;29;1324;-90
2023/10/24 03:08:17;;;;;;;3.38;1.70;;;;;;;17.72;55.27;99730.50;678028;29;1329;-89
2023/10/24 03:08:37;;;;;;;3.13;1.80;;;;;;;17.74;55.25;99733.97;669993;29;1191;-90
2023/10/24 03:09:22;;;;;;;4.05;2.08;;;;;;;17.72;55.00;99722.59;675534;29;1181;-89
2023/10/24 03:09:43;;;;;;;3.28;1.70;;;;;;;17.84;55.14;99725.88;677757;29;1322;-91
2023/10/24 03:10:05;;;;;;;2.92;1.70;;;;;;;17.81;55.15;99732.09;677464;29;1222;-90
2023/10/24 03:10:26;;;;;;;2.83;1.70;;;;;;;17.83;55.18;99740.00;672435;29;1421;-90
2023/10/24 03:10:47;;;;;;;3.40;1.90;;;;;;;17.77;54.96;99720.72;674735;29;1152;-89
2023/10/24 03:11:07;;;;;;;3.33;1.80;;;;;;;17.82;54.96;99739.09;669680;29;1243;-89
2023/10/24 03:11:34;;;;;;;3.22;1.92;;;;;;;17.75;55.17;99734.84;670316;29;1486;-89
2023/10/24 03:11:57;;;;;;;2.95;1.80;;;;;;;17.71;54.90;99722.63;677103;29;1655;-88
2023/10/24 03:12:21;;;;;;;2.90;1.77;;;;;;;17.79;55.02;99747.97;678757;29;1401;-89
2023/10/24 03:12:57;;;;;;;2.97;1.70;;;;;;;17.85;54.93;99751.38;671961;29;1916;-89
2023/10/24 03:13:52;;;;;;;3.10;1.70;;;;;;;17.78;55.05;99751.47;677284;29;1172;-89
2023/10/24 03:15:10;;;;;;;3.47;1.80;;;;;;;17.72;55.02;99729.63;678286;29;1139;-88
2023/10/24 03:15:43;;;;;;;2.75;1.90;;;;;;;17.75;55.09;99733.09;670289;29;1334;-89
2023/10/24 03:16:32;;;;;;;2.72;2.00;;;;;;;17.75;55.07;99733.09;673416;29;1608;-89
2023/10/24 03:16:57;;;;;;;3.17;1.88;;;;;;;17.75;55.25;99734.84;674775;29;1256;-88
2023/10/24 03:17:18;;;;;;;3.08;1.88;;;;;;;17.71;55.09;99726.13;669914;29;1279;-87
2023/10/24 03:17:39;;;;;;;3.03;1.80;;;;;;;17.71;55.24;99725.25;672594;29;1216;-90
2023/10/24 03:18:05;;;;;;;2.60;1.63;;;;;;;17.77;55.08;99730.44;671931;29;1350;-89
2023/10/24 03:18:30;;;;;;;11.20;1.90;;;;;;;17.76;55.10;99732.19;674652;29;1288;-87
2023/10/24 03:18:56;;;;;;;11.68;1.90;;;;;;;17.77;55.14;99733.91;677545;29;1251;-90
2023/10/24 03:19:27;;;;;;;3.50;1.60;;;;;;;17.72;55.13;99725.25;676967;29;1251;-88
2023/10/24 03:20:09;;;;;;;2.50;1.70;;;;;;;17.67;55.19;99737.63;682390;29;1314;-89
2023/10/24 03:20:42;;;;;;;2.58;1.60;;;;;;;17.68;55.29;99726.16;682349;29;1389;-89
2023/10/24 03:21:15;;;;;;;2.50;1.60;;;;;;;17.67;54.93;99729.72;676838;29;1366;-89
2023/10/24 03:21:36;;;;;;;3.63;1.90;;;;;;;17.70;55.02;99727.00;672298;29;1314;-90
2023/10/24 03:22:00;;;;;;;3.70;1.90;;;;;;;17.70;55.10;99724.38;669547;29;1232;-89
2023/10/24 03:22:29;;;;;;;5.00;1.80;;;;;;;17.70;55.08;99729.66;669797;29;1398;-89
2023/10/24 03:22:49;;;;;;;3.47;1.65;;;;;;;17.74;55.06;99726.06;677453;29;1390;-89
2023/10/24 03:23:10;;;;;;;4.60;1.80;;;;;;;17.77;55.12;99733.91;674588;29;1335;-91
2023/10/24 03:23:47;;;;;;;3.88;2.00;;;;;;;17.75;55.04;99727.81;672285;29;1325;-90
2023/10/24 03:24:11;;;;;;;3.30;2.05;;;;;;;17.76;55.03;99726.91;672215;29;1366;-89
2023/10/24 03:24:37;;;;;;;3.67;1.98;;;;;;;17.70;55.27;99734.91;671668;29;1559;-89
2023/10/24 03:25:23;;;;;;;3.75;1.92;;;;;;;17.72;55.05;99721.72;669242;29;1541;-89
2023/10/24 03:25:46;;;;;;;4.13;2.20;;;;;;;17.76;55.23;99729.53;674943;29;1266;-88
2023/10/24 03:26:11;;;;;;;3.92;2.03;;;;;;;17.73;55.10;99726.09;674169;29;1327;-88
2023/10/24 03:26:33;;;;;;;3.70;1.90;;;;;;;17.78;55.08;99724.25;672348;29;1319;-91
2023/10/24 03:26:56;;;;;;;3.07;1.90;;;;;;;17.75;55.11;99722.53;674201;29;1149;-89
2023/10/24 03:27:20;;;;;;;2.88;1.75;;;;;;;17.79;55.00;99729.50;675153;29;1253;-90
2023/10/24 03:27:41;;;;;;;2.92;1.73;;;;;;;17.79;55.06;99739.19;669269;29;1253;-90
2023/10/24 03:28:02;;;;;;;3.28;1.70;;;;;;;17.77;55.05;99735.69;672063;29;1327;-90
2023/10/24 03:28:22;;;;;;;3.83;2.03;;;;;;;17.76;54.69;99734.81;676515;29;1365;-90
2023/10/24 03:28:46;;;;;;;3.65;2.03;;;;;;;17.85;54.80;99746.09;672501;29;1263;-89
2023/10/24 03:29:12;;;;;;;3.42;1.95;;;;;;;17.87;54.69;99736.38;672374;29;1251;-88
2023/10/24 03:29:44;;;;;;;3.50;1.75;;;;;;;17.78;54.59;99742.72;674594;29;1400;-90
2023/10/24 03:30:05;;;;;;;2.50;1.50;;;;;;;17.79;54.71;99755.88;672109;29;1528;-90
2023/10/24 03:30:32;;;;;;;3.00;1.70;;;;;;;17.78;54.82;99743.56;669473;29;1207;-89
2023/10/24 03:31:06;;;;;;;2.45;1.60;;;;;;;17.75;54.85;99737.47;669598;29;1240;-88
2023/10/24 03:31:45;;;;;;;3.50;1.90;;;;;;;17.78;54.86;99743.56;674981;29;1522;-90
2023/10/24 03:34:18;;;;;;;3.08;1.83;;;;;;;17.89;54.66;99727.53;670388;29;1365;-89
2023/10/24 03:35:04;;;;;;;3.50;2.00;;;;;;;17.79;54.56;99707.50;669491;29;1435;-89
2023/10/24 03:35:48;;;;;;;3.13;1.80;;;;;;;17.78;54.57;99711.06;671990;29;1153;-89
2023/10/24 03:36:15;;;;;;;2.30;1.90;;;;;;;17.80;54.75;99725.97;675353;29;1206;-90
2023/10/24 03:36:51;;;;;;;2.60;1.90;;;;;;;17.86;54.82;99729.38;671599;29;1342;-89
2023/10/24 03:37:17;;;;;;;2.67;1.80;;;;;;;17.82;54.47;99725.91;670757;29;1351;-90
2023/10/24 03:37:38;;;;;;;2.97;1.80;;;;;;;17.83;54.57;99729.44;680193;29;824;-91
2023/10/24 03:37:58;;;;;;;2.92;1.67;;;;;;;17.81;54.50;99732.97;669846;29;1215;-90
2023/10/24 03:38:19;;;;;;;4.15;1.80;;;;;;;17.92;54.63;99739.81;677270;29;1286;-89
2023/10/24 03:38:40;;;;;;;4.10;1.90;;;;;;;17.91;54.52;99727.50;677524;29;1333;-89